sensor_id;sensor_type;location;lat;lon;timestamp;P1;durP1;ratioP1;P2;durP2;ratioP2
23617;SDS011;18207;32.078;34.818;2023-01-05T00:00:25;3.30;;;2.20;;
23617;SDS011;18207;32.078;34.818;2023-01-05T00:02:58;2.60;;;2.42;;
23617;SDS011;18207;32.078;34.818;2023-01-05T00:05:28;2.58;;;2.38;;
23617;SDS011;18207;32.078;34.818;2023-01-05T00:07:58;2.83;;;2.63;;
23617;SDS011;18207;32.078;34.818;2023-01-05T00:10:29;2.70;;;2.50;;
23617;SDS011;18207;32.078;34.818;2023-01-05T00:13:16;2.55;;;2.35;;
23617;SDS011;18207;32.078;34.818;2023-01-05T00:16:07;2.45;;;2.33;;
23617;SDS011;18207;32.078;34.818;2023-01-05T00:19:07;2.70;;;2.50;;
23617;SDS011;18207;32.078;34.818;2023-01-05T00:21:56;2.33;;;2.20;;
23617;SDS011;18207;32.078;34.818;2023-01-05T00:24:43;2.53;;;2.33;;
23617;SDS011;18207;32.078;34.818;2023-01-05T00:27:13;2.58;;;2.35;;
23617;SDS011;18207;32.078;34.818;2023-01-05T00:29:43;2.58;;;2.38;;
23617;SDS011;18207;32.078;34.818;2023-01-05T00:32:16;2.80;;;2.60;;
23617;SDS011;18207;32.078;34.818;2023-01-05T00:34:46;2.65;;;2.45;;
23617;SDS011;18207;32.078;34.818;2023-01-05T00:37:20;2.55;;;2.35;;
23617;SDS011;18207;32.078;34.818;2023-01-05T00:39:52;2.50;;;2.30;;
23617;SDS011;18207;32.078;34.818;2023-01-05T00:42:23;2.90;;;2.70;;
23617;SDS011;18207;32.078;34.818;2023-01-05T00:44:53;2.67;;;2.47;;
23617;SDS011;18207;32.078;34.818;2023-01-05T00:47:26;2.53;;;2.42;;
23617;SDS011;18207;32.078;34.818;2023-01-05T00:49:56;2.88;;;2.67;;
23617;SDS011;18207;32.078;34.818;2023-01-05T00:52:26;3.47;;;2.60;;
23617;SDS011;18207;32.078;34.818;2023-01-05T00:54:57;2.67;;;2.47;;
23617;SDS011;18207;32.078;34.818;2023-01-05T00:57:28;2.60;;;2.40;;
23617;SDS011;18207;32.078;34.818;2023-01-05T00:59:59;2.90;;;2.70;;
23617;SDS011;18207;32.078;34.818;2023-01-05T01:02:31;2.85;;;2.65;;
23617;SDS011;18207;32.078;34.818;2023-01-05T01:05:03;2.63;;;2.42;;
23617;SDS011;18207;32.078;34.818;2023-01-05T01:07:34;2.92;;;2.72;;
23617;SDS011;18207;32.078;34.818;2023-01-05T01:10:06;3.08;;;2.88;;
23617;SDS011;18207;32.078;34.818;2023-01-05T01:12:39;2.85;;;2.65;;
23617;SDS011;18207;32.078;34.818;2023-01-05T01:15:09;2.65;;;2.45;;
23617;SDS011;18207;32.078;34.818;2023-01-05T01:17:41;3.10;;;2.90;;
23617;SDS011;18207;32.078;34.818;2023-01-05T01:20:12;2.65;;;2.45;;
23617;SDS011;18207;32.078;34.818;2023-01-05T01:22:42;2.80;;;2.60;;
23617;SDS011;18207;32.078;34.818;2023-01-05T01:25:13;2.78;;;2.55;;
23617;SDS011;18207;32.078;34.818;2023-01-05T01:27:43;2.95;;;2.58;;
23617;SDS011;18207;32.078;34.818;2023-01-05T01:30:13;2.85;;;2.65;;
23617;SDS011;18207;32.078;34.818;2023-01-05T01:32:46;2.80;;;2.60;;
23617;SDS011;18207;32.078;34.818;2023-01-05T01:35:16;2.83;;;2.63;;
23617;SDS011;18207;32.078;34.818;2023-01-05T01:37:46;2.83;;;2.63;;
23617;SDS011;18207;32.078;34.818;2023-01-05T01:40:16;3.10;;;2.63;;
23617;SDS011;18207;32.078;34.818;2023-01-05T01:42:47;2.97;;;2.78;;
23617;SDS011;18207;32.078;34.818;2023-01-05T01:45:17;2.85;;;2.65;;
23617;SDS011;18207;32.078;34.818;2023-01-05T01:47:52;2.88;;;2.67;;
23617;SDS011;18207;32.078;34.818;2023-01-05T01:50:28;2.95;;;2.75;;
23617;SDS011;18207;32.078;34.818;2023-01-05T01:53:02;2.72;;;2.53;;
23617;SDS011;18207;32.078;34.818;2023-01-05T01:55:36;2.95;;;2.75;;
23617;SDS011;18207;32.078;34.818;2023-01-05T01:58:08;2.95;;;2.75;;
23617;SDS011;18207;32.078;34.818;2023-01-05T02:00:44;2.90;;;2.65;;
23617;SDS011;18207;32.078;34.818;2023-01-05T02:03:17;2.88;;;2.67;;
23617;SDS011;18207;32.078;34.818;2023-01-05T02:05:48;2.88;;;2.67;;
23617;SDS011;18207;32.078;34.818;2023-01-05T02:08:18;3.20;;;3.00;;
23617;SDS011;18207;32.078;34.818;2023-01-05T02:11:01;2.80;;;2.60;;
23617;SDS011;18207;32.078;34.818;2023-01-05T02:16:58;2.70;;;2.50;;
23617;SDS011;18207;32.078;34.818;2023-01-05T02:26:32;2.65;;;2.45;;
23617;SDS011;18207;32.078;34.818;2023-01-05T02:33:34;2.58;;;2.38;;
23617;SDS011;18207;32.078;34.818;2023-01-05T02:36:22;2.50;;;2.35;;
23617;SDS011;18207;32.078;34.818;2023-01-05T02:38:59;2.90;;;2.70;;
23617;SDS011;18207;32.078;34.818;2023-01-05T02:41:37;2.80;;;2.60;;
23617;SDS011;18207;32.078;34.818;2023-01-05T02:44:16;3.22;;;2.55;;
23617;SDS011;18207;32.078;34.818;2023-01-05T02:46:57;2.90;;;2.70;;
23617;SDS011;18207;32.078;34.818;2023-01-05T02:49:32;2.92;;;2.72;;
23617;SDS011;18207;32.078;34.818;2023-01-05T02:52:08;2.63;;;2.42;;
23617;SDS011;18207;32.078;34.818;2023-01-05T02:54:42;3.10;;;2.90;;
23617;SDS011;18207;32.078;34.818;2023-01-05T02:57:17;3.28;;;2.97;;
23617;SDS011;18207;32.078;34.818;2023-01-05T03:00:13;3.10;;;2.75;;
23617;SDS011;18207;32.078;34.818;2023-01-05T03:02:51;3.10;;;2.85;;
23617;SDS011;18207;32.078;34.818;2023-01-05T03:05:31;3.05;;;2.83;;
23617;SDS011;18207;32.078;34.818;2023-01-05T03:08:06;3.22;;;2.92;;
23617;SDS011;18207;32.078;34.818;2023-01-05T03:10:59;2.88;;;2.67;;
23617;SDS011;18207;32.078;34.818;2023-01-05T03:13:47;2.88;;;2.67;;
23617;SDS011;18207;32.078;34.818;2023-01-05T03:16:25;3.95;;;2.90;;
23617;SDS011;18207;32.078;34.818;2023-01-05T03:19:02;2.88;;;2.67;;
23617;SDS011;18207;32.078;34.818;2023-01-05T03:21:58;2.70;;;2.50;;
23617;SDS011;18207;32.078;34.818;2023-01-05T03:24:50;2.72;;;2.42;;
23617;SDS011;18207;32.078;34.818;2023-01-05T03:27:37;2.92;;;2.70;;
23617;SDS011;18207;32.078;34.818;2023-01-05T03:30:28;2.88;;;2.67;;
23617;SDS011;18207;32.078;34.818;2023-01-05T03:33:28;3.15;;;2.60;;
23617;SDS011;18207;32.078;34.818;2023-01-05T03:36:27;2.80;;;2.60;;
23617;SDS011;18207;32.078;34.818;2023-01-05T03:39:06;2.83;;;2.63;;
23617;SDS011;18207;32.078;34.818;2023-01-05T03:41:41;2.80;;;2.60;;
23617;SDS011;18207;32.078;34.818;2023-01-05T03:44:12;2.95;;;2.75;;
23617;SDS011;18207;32.078;34.818;2023-01-05T03:46:42;3.35;;;2.88;;
23617;SDS011;18207;32.078;34.818;2023-01-05T03:49:13;2.70;;;2.50;;
23617;SDS011;18207;32.078;34.818;2023-01-05T03:51:49;3.10;;;2.80;;
23617;SDS011;18207;32.078;34.818;2023-01-05T03:54:21;2.90;;;2.70;;
23617;SDS011;18207;32.078;34.818;2023-01-05T03:56:51;2.83;;;2.63;;
23617;SDS011;18207;32.078;34.818;2023-01-05T03:59:22;2.55;;;2.35;;
23617;SDS011;18207;32.078;34.818;2023-01-05T04:01:52;2.60;;;2.30;;
23617;SDS011;18207;32.078;34.818;2023-01-05T04:04:23;2.60;;;2.40;;
23617;SDS011;18207;32.078;34.818;2023-01-05T04:06:54;2.55;;;2.38;;
23617;SDS011;18207;32.078;34.818;2023-01-05T04:09:26;2.88;;;2.67;;
23617;SDS011;18207;32.078;34.818;2023-01-05T04:11:56;2.72;;;2.53;;
23617;SDS011;18207;32.078;34.818;2023-01-05T04:14:27;2.75;;;2.55;;
23617;SDS011;18207;32.078;34.818;2023-01-05T04:17:00;3.50;;;2.55;;
23617;SDS011;18207;32.078;34.818;2023-01-05T04:19:32;2.83;;;2.63;;
23617;SDS011;18207;32.078;34.818;2023-01-05T04:22:03;2.70;;;2.50;;
23617;SDS011;18207;32.078;34.818;2023-01-05T04:24:35;2.83;;;2.63;;
23617;SDS011;18207;32.078;34.818;2023-01-05T04:27:05;2.80;;;2.60;;
23617;SDS011;18207;32.078;34.818;2023-01-05T04:29:36;2.92;;;2.72;;
23617;SDS011;18207;32.078;34.818;2023-01-05T04:32:06;2.83;;;2.63;;
23617;SDS011;18207;32.078;34.818;2023-01-05T04:34:36;3.08;;;2.70;;
23617;SDS011;18207;32.078;34.818;2023-01-05T04:37:07;2.58;;;2.40;;
23617;SDS011;18207;32.078;34.818;2023-01-05T04:39:39;2.80;;;2.60;;
23617;SDS011;18207;32.078;34.818;2023-01-05T04:42:10;3.10;;;2.88;;
23617;SDS011;18207;32.078;34.818;2023-01-05T04:44:39;2.42;;;2.33;;
23617;SDS011;18207;32.078;34.818;2023-01-05T04:47:10;2.75;;;2.55;;
23617;SDS011;18207;32.078;34.818;2023-01-05T04:49:40;2.60;;;2.40;;
23617;SDS011;18207;32.078;34.818;2023-01-05T04:52:10;2.50;;;2.30;;
23617;SDS011;18207;32.078;34.818;2023-01-05T04:54:42;2.25;;;2.05;;
23617;SDS011;18207;32.078;34.818;2023-01-05T04:57:13;2.58;;;2.38;;
23617;SDS011;18207;32.078;34.818;2023-01-05T04:59:44;2.75;;;2.55;;
23617;SDS011;18207;32.078;34.818;2023-01-05T05:02:15;2.40;;;2.30;;
23617;SDS011;18207;32.078;34.818;2023-01-05T05:04:46;2.45;;;2.30;;
23617;SDS011;18207;32.078;34.818;2023-01-05T05:07:16;2.35;;;2.25;;
23617;SDS011;18207;32.078;34.818;2023-01-05T05:09:48;2.67;;;2.47;;
23617;SDS011;18207;32.078;34.818;2023-01-05T05:12:19;2.67;;;2.47;;
23617;SDS011;18207;32.078;34.818;2023-01-05T05:14:49;2.78;;;2.58;;
23617;SDS011;18207;32.078;34.818;2023-01-05T05:17:20;2.67;;;2.47;;
23617;SDS011;18207;32.078;34.818;2023-01-05T05:19:50;2.55;;;2.35;;
23617;SDS011;18207;32.078;34.818;2023-01-05T05:22:20;2.50;;;2.30;;
23617;SDS011;18207;32.078;34.818;2023-01-05T05:24:54;2.67;;;2.47;;
23617;SDS011;18207;32.078;34.818;2023-01-05T05:27:24;2.60;;;2.40;;
23617;SDS011;18207;32.078;34.818;2023-01-05T05:29:55;2.78;;;2.58;;
23617;SDS011;18207;32.078;34.818;2023-01-05T05:32:26;2.65;;;2.45;;
23617;SDS011;18207;32.078;34.818;2023-01-05T05:34:56;2.72;;;2.50;;
23617;SDS011;18207;32.078;34.818;2023-01-05T05:37:26;2.88;;;2.67;;
23617;SDS011;18207;32.078;34.818;2023-01-05T05:39:58;2.70;;;2.50;;
23617;SDS011;18207;32.078;34.818;2023-01-05T05:42:28;2.85;;;2.65;;
23617;SDS011;18207;32.078;34.818;2023-01-05T05:44:59;2.63;;;2.42;;
23617;SDS011;18207;32.078;34.818;2023-01-05T05:47:29;2.88;;;2.53;;
23617;SDS011;18207;32.078;34.818;2023-01-05T05:50:00;2.83;;;2.50;;
23617;SDS011;18207;32.078;34.818;2023-01-05T05:52:31;2.80;;;2.60;;
23617;SDS011;18207;32.078;34.818;2023-01-05T05:55:03;3.00;;;2.70;;
23617;SDS011;18207;32.078;34.818;2023-01-05T05:57:35;2.40;;;2.25;;
23617;SDS011;18207;32.078;34.818;2023-01-05T06:00:06;2.55;;;2.35;;
23617;SDS011;18207;32.078;34.818;2023-01-05T06:02:38;2.35;;;2.15;;
23617;SDS011;18207;32.078;34.818;2023-01-05T06:05:09;4.18;;;2.70;;
23617;SDS011;18207;32.078;34.818;2023-01-05T06:07:39;2.72;;;2.53;;
23617;SDS011;18207;32.078;34.818;2023-01-05T06:10:11;3.58;;;2.83;;
23617;SDS011;18207;32.078;34.818;2023-01-05T06:12:43;2.65;;;2.45;;
23617;SDS011;18207;32.078;34.818;2023-01-05T06:15:13;2.70;;;2.50;;
23617;SDS011;18207;32.078;34.818;2023-01-05T06:17:44;2.72;;;2.53;;
23617;SDS011;18207;32.078;34.818;2023-01-05T06:20:15;2.47;;;2.38;;
23617;SDS011;18207;32.078;34.818;2023-01-05T06:22:45;2.85;;;2.17;;
23617;SDS011;18207;32.078;34.818;2023-01-05T06:25:17;2.47;;;2.28;;
23617;SDS011;18207;32.078;34.818;2023-01-05T06:27:48;2.60;;;2.40;;
23617;SDS011;18207;32.078;34.818;2023-01-05T06:30:18;2.42;;;2.22;;
23617;SDS011;18207;32.078;34.818;2023-01-05T06:32:49;2.58;;;2.28;;
23617;SDS011;18207;32.078;34.818;2023-01-05T06:35:20;2.67;;;2.47;;
23617;SDS011;18207;32.078;34.818;2023-01-05T06:37:51;3.28;;;2.50;;
23617;SDS011;18207;32.078;34.818;2023-01-05T06:40:22;2.85;;;2.10;;
23617;SDS011;18207;32.078;34.818;2023-01-05T06:42:53;2.42;;;2.20;;
23617;SDS011;18207;32.078;34.818;2023-01-05T06:45:24;2.50;;;2.30;;
23617;SDS011;18207;32.078;34.818;2023-01-05T06:47:54;2.58;;;2.08;;
23617;SDS011;18207;32.078;34.818;2023-01-05T06:50:25;2.58;;;2.40;;
23617;SDS011;18207;32.078;34.818;2023-01-05T06:52:56;2.65;;;2.45;;
23617;SDS011;18207;32.078;34.818;2023-01-05T06:55:28;2.00;;;1.90;;
23617;SDS011;18207;32.078;34.818;2023-01-05T06:57:59;2.33;;;2.13;;
23617;SDS011;18207;32.078;34.818;2023-01-05T07:00:29;2.40;;;2.20;;
23617;SDS011;18207;32.078;34.818;2023-01-05T07:03:00;2.30;;;2.10;;
23617;SDS011;18207;32.078;34.818;2023-01-05T07:05:30;2.10;;;2.00;;
23617;SDS011;18207;32.078;34.818;2023-01-05T07:08:01;2.55;;;2.38;;
23617;SDS011;18207;32.078;34.818;2023-01-05T07:10:32;2.22;;;2.13;;
23617;SDS011;18207;32.078;34.818;2023-01-05T07:13:03;2.10;;;2.00;;
23617;SDS011;18207;32.078;34.818;2023-01-05T07:15:33;2.22;;;2.10;;
23617;SDS011;18207;32.078;34.818;2023-01-05T07:18:03;2.10;;;2.00;;
23617;SDS011;18207;32.078;34.818;2023-01-05T07:20:33;2.00;;;1.90;;
23617;SDS011;18207;32.078;34.818;2023-01-05T07:23:04;2.15;;;2.03;;
23617;SDS011;18207;32.078;34.818;2023-01-05T07:25:36;2.20;;;2.08;;
23617;SDS011;18207;32.078;34.818;2023-01-05T07:28:07;2.17;;;2.00;;
23617;SDS011;18207;32.078;34.818;2023-01-05T07:30:37;2.00;;;1.90;;
23617;SDS011;18207;32.078;34.818;2023-01-05T07:33:08;2.08;;;1.88;;
23617;SDS011;18207;32.078;34.818;2023-01-05T07:35:38;2.30;;;2.10;;
23617;SDS011;18207;32.078;34.818;2023-01-05T07:38:09;2.20;;;2.10;;
23617;SDS011;18207;32.078;34.818;2023-01-05T07:40:41;2.22;;;2.03;;
23617;SDS011;18207;32.078;34.818;2023-01-05T07:43:11;2.08;;;1.90;;
23617;SDS011;18207;32.078;34.818;2023-01-05T07:45:42;2.35;;;2.13;;
23617;SDS011;18207;32.078;34.818;2023-01-05T07:48:12;2.15;;;2.03;;
23617;SDS011;18207;32.078;34.818;2023-01-05T07:50:49;2.20;;;2.10;;
23617;SDS011;18207;32.078;34.818;2023-01-05T07:53:19;1.98;;;1.88;;
23617;SDS011;18207;32.078;34.818;2023-01-05T07:55:57;2.10;;;2.00;;
23617;SDS011;18207;32.078;34.818;2023-01-05T07:58:31;2.00;;;1.90;;
23617;SDS011;18207;32.078;34.818;2023-01-05T08:01:02;2.10;;;2.00;;
23617;SDS011;18207;32.078;34.818;2023-01-05T08:03:34;2.00;;;1.90;;
23617;SDS011;18207;32.078;34.818;2023-01-05T08:06:05;2.00;;;1.90;;
23617;SDS011;18207;32.078;34.818;2023-01-05T08:08:38;2.05;;;1.90;;
23617;SDS011;18207;32.078;34.818;2023-01-05T08:11:11;2.53;;;1.90;;
23617;SDS011;18207;32.078;34.818;2023-01-05T08:13:45;1.90;;;1.80;;
23617;SDS011;18207;32.078;34.818;2023-01-05T08:16:29;2.03;;;1.92;;
23617;SDS011;18207;32.078;34.818;2023-01-05T08:19:01;2.10;;;1.90;;
23617;SDS011;18207;32.078;34.818;2023-01-05T08:21:36;1.92;;;1.83;;
23617;SDS011;18207;32.078;34.818;2023-01-05T08:24:07;2.03;;;1.92;;
23617;SDS011;18207;32.078;34.818;2023-01-05T08:26:39;1.92;;;1.70;;
23617;SDS011;18207;32.078;34.818;2023-01-05T08:29:09;1.92;;;1.83;;
23617;SDS011;18207;32.078;34.818;2023-01-05T08:31:39;2.00;;;1.90;;
23617;SDS011;18207;32.078;34.818;2023-01-05T08:34:10;1.83;;;1.73;;
23617;SDS011;18207;32.078;34.818;2023-01-05T08:36:40;1.90;;;1.80;;
23617;SDS011;18207;32.078;34.818;2023-01-05T08:39:11;2.10;;;1.90;;
23617;SDS011;18207;32.078;34.818;2023-01-05T08:41:44;1.95;;;1.85;;
23617;SDS011;18207;32.078;34.818;2023-01-05T08:44:15;2.08;;;1.90;;
23617;SDS011;18207;32.078;34.818;2023-01-05T08:46:46;2.03;;;1.90;;
23617;SDS011;18207;32.078;34.818;2023-01-05T08:49:17;1.58;;;1.55;;
23617;SDS011;18207;32.078;34.818;2023-01-05T08:51:48;1.70;;;1.60;;
23617;SDS011;18207;32.078;34.818;2023-01-05T08:54:18;1.90;;;1.80;;
23617;SDS011;18207;32.078;34.818;2023-01-05T08:56:51;1.88;;;1.77;;
23617;SDS011;18207;32.078;34.818;2023-01-05T08:59:23;1.90;;;1.80;;
23617;SDS011;18207;32.078;34.818;2023-01-05T09:01:54;1.80;;;1.70;;
23617;SDS011;18207;32.078;34.818;2023-01-05T09:04:25;1.80;;;1.67;;
23617;SDS011;18207;32.078;34.818;2023-01-05T09:06:56;1.65;;;1.55;;
23617;SDS011;18207;32.078;34.818;2023-01-05T09:09:26;1.65;;;1.55;;
23617;SDS011;18207;32.078;34.818;2023-01-05T09:11:58;2.08;;;1.88;;
23617;SDS011;18207;32.078;34.818;2023-01-05T09:14:30;2.28;;;2.08;;
23617;SDS011;18207;32.078;34.818;2023-01-05T09:17:01;1.90;;;1.80;;
23617;SDS011;18207;32.078;34.818;2023-01-05T09:19:34;1.90;;;1.80;;
23617;SDS011;18207;32.078;34.818;2023-01-05T09:22:05;1.88;;;1.77;;
23617;SDS011;18207;32.078;34.818;2023-01-05T09:24:36;1.80;;;1.70;;
23617;SDS011;18207;32.078;34.818;2023-01-05T09:27:08;1.70;;;1.60;;
23617;SDS011;18207;32.078;34.818;2023-01-05T09:29:38;1.67;;;1.58;;
23617;SDS011;18207;32.078;34.818;2023-01-05T09:32:08;1.65;;;1.55;;
23617;SDS011;18207;32.078;34.818;2023-01-05T09:34:39;1.63;;;1.52;;
23617;SDS011;18207;32.078;34.818;2023-01-05T09:37:11;1.95;;;1.60;;
23617;SDS011;18207;32.078;34.818;2023-01-05T09:39:41;1.58;;;1.48;;
23617;SDS011;18207;32.078;34.818;2023-01-05T09:42:14;1.67;;;1.58;;
23617;SDS011;18207;32.078;34.818;2023-01-05T09:44:49;1.50;;;1.40;;
23617;SDS011;18207;32.078;34.818;2023-01-05T09:47:28;1.50;;;1.40;;
23617;SDS011;18207;32.078;34.818;2023-01-05T09:50:05;1.58;;;1.50;;
23617;SDS011;18207;32.078;34.818;2023-01-05T09:52:46;1.50;;;1.40;;
23617;SDS011;18207;32.078;34.818;2023-01-05T09:55:20;1.60;;;1.50;;
23617;SDS011;18207;32.078;34.818;2023-01-05T09:57:59;1.65;;;1.55;;
23617;SDS011;18207;32.078;34.818;2023-01-05T10:00:39;1.65;;;1.55;;
23617;SDS011;18207;32.078;34.818;2023-01-05T10:03:20;1.70;;;1.60;;
23617;SDS011;18207;32.078;34.818;2023-01-05T10:06:14;1.70;;;1.60;;
23617;SDS011;18207;32.078;34.818;2023-01-05T10:08:46;1.50;;;1.40;;
23617;SDS011;18207;32.078;34.818;2023-01-05T10:11:21;1.50;;;1.40;;
23617;SDS011;18207;32.078;34.818;2023-01-05T10:14:21;1.42;;;1.33;;
23617;SDS011;18207;32.078;34.818;2023-01-05T10:17:01;1.60;;;1.50;;
23617;SDS011;18207;32.078;34.818;2023-01-05T10:19:55;1.50;;;1.40;;
23617;SDS011;18207;32.078;34.818;2023-01-05T10:22:30;1.52;;;1.42;;
23617;SDS011;18207;32.078;34.818;2023-01-05T10:25:13;1.60;;;1.50;;
23617;SDS011;18207;32.078;34.818;2023-01-05T10:27:54;1.50;;;1.40;;
23617;SDS011;18207;32.078;34.818;2023-01-05T10:30:42;1.40;;;1.30;;
23617;SDS011;18207;32.078;34.818;2023-01-05T10:33:38;1.38;;;1.27;;
23617;SDS011;18207;32.078;34.818;2023-01-05T10:36:28;1.60;;;1.50;;
23617;SDS011;18207;32.078;34.818;2023-01-05T10:39:41;2.05;;;1.40;;
23617;SDS011;18207;32.078;34.818;2023-01-05T10:42:35;1.00;;;1.00;;
23617;SDS011;18207;32.078;34.818;2023-01-05T10:45:15;1.27;;;1.17;;
23617;SDS011;18207;32.078;34.818;2023-01-05T10:47:49;1.13;;;1.00;;
23617;SDS011;18207;32.078;34.818;2023-01-05T10:50:25;1.20;;;1.10;;
23617;SDS011;18207;32.078;34.818;2023-01-05T10:53:07;0.80;;;0.68;;
23617;SDS011;18207;32.078;34.818;2023-01-05T10:55:43;1.10;;;1.00;;
23617;SDS011;18207;32.078;34.818;2023-01-05T10:58:23;1.20;;;1.08;;
23617;SDS011;18207;32.078;34.818;2023-01-05T11:00:56;3.15;;;0.90;;
23617;SDS011;18207;32.078;34.818;2023-01-05T11:03:36;0.90;;;0.90;;
23617;SDS011;18207;32.078;34.818;2023-01-05T11:06:31;0.75;;;0.75;;
23617;SDS011;18207;32.078;34.818;2023-01-05T11:09:04;0.68;;;0.68;;
23617;SDS011;18207;32.078;34.818;2023-01-05T11:11:52;0.88;;;0.88;;
23617;SDS011;18207;32.078;34.818;2023-01-05T11:14:24;0.60;;;0.60;;
23617;SDS011;18207;32.078;34.818;2023-01-05T11:17:01;0.50;;;0.50;;
23617;SDS011;18207;32.078;34.818;2023-01-05T11:19:45;0.60;;;0.60;;
23617;SDS011;18207;32.078;34.818;2023-01-05T11:22:26;0.80;;;0.60;;
23617;SDS011;18207;32.078;34.818;2023-01-05T11:25:19;0.60;;;0.60;;
23617;SDS011;18207;32.078;34.818;2023-01-05T11:28:05;0.80;;;0.80;;
23617;SDS011;18207;32.078;34.818;2023-01-05T11:30:46;1.20;;;0.63;;
23617;SDS011;18207;32.078;34.818;2023-01-05T11:33:28;0.50;;;0.50;;
23617;SDS011;18207;32.078;34.818;2023-01-05T11:36:08;0.90;;;0.70;;
23617;SDS011;18207;32.078;34.818;2023-01-05T11:38:42;1.42;;;0.88;;
23617;SDS011;18207;32.078;34.818;2023-01-05T11:41:20;0.77;;;0.70;;
23617;SDS011;18207;32.078;34.818;2023-01-05T11:43:52;0.90;;;0.68;;
23617;SDS011;18207;32.078;34.818;2023-01-05T11:46:26;0.63;;;0.63;;
23617;SDS011;18207;32.078;34.818;2023-01-05T11:49:10;0.75;;;0.75;;
23617;SDS011;18207;32.078;34.818;2023-01-05T11:51:49;0.50;;;0.50;;
23617;SDS011;18207;32.078;34.818;2023-01-05T11:54:32;0.40;;;0.40;;
23617;SDS011;18207;32.078;34.818;2023-01-05T11:57:11;0.95;;;0.73;;
23617;SDS011;18207;32.078;34.818;2023-01-05T11:59:45;0.70;;;0.68;;
23617;SDS011;18207;32.078;34.818;2023-01-05T12:05:42;1.27;;;0.88;;
23617;SDS011;18207;32.078;34.818;2023-01-05T12:08:22;0.68;;;0.68;;
23617;SDS011;18207;32.078;34.818;2023-01-05T12:11:01;0.60;;;0.60;;
23617;SDS011;18207;32.078;34.818;2023-01-05T12:13:45;0.40;;;0.40;;
23617;SDS011;18207;32.078;34.818;2023-01-05T12:16:41;0.90;;;0.52;;
23617;SDS011;18207;32.078;34.818;2023-01-05T12:19:27;1.42;;;0.80;;
23617;SDS011;18207;32.078;34.818;2023-01-05T12:26:08;0.50;;;0.50;;
23617;SDS011;18207;32.078;34.818;2023-01-05T12:32:31;0.50;;;0.50;;
23617;SDS011;18207;32.078;34.818;2023-01-05T12:35:52;0.55;;;0.55;;
23617;SDS011;18207;32.078;34.818;2023-01-05T12:38:49;0.70;;;0.70;;
23617;SDS011;18207;32.078;34.818;2023-01-05T12:41:53;0.60;;;0.60;;
23617;SDS011;18207;32.078;34.818;2023-01-05T12:44:58;0.45;;;0.45;;
23617;SDS011;18207;32.078;34.818;2023-01-05T12:48:12;0.70;;;0.70;;
23617;SDS011;18207;32.078;34.818;2023-01-05T12:50:50;0.50;;;0.50;;
23617;SDS011;18207;32.078;34.818;2023-01-05T12:56:29;0.70;;;0.70;;
23617;SDS011;18207;32.078;34.818;2023-01-05T12:59:09;0.60;;;0.52;;
23617;SDS011;18207;32.078;34.818;2023-01-05T13:01:49;0.95;;;0.77;;
23617;SDS011;18207;32.078;34.818;2023-01-05T13:04:42;0.70;;;0.70;;
23617;SDS011;18207;32.078;34.818;2023-01-05T13:10:19;0.65;;;0.65;;
23617;SDS011;18207;32.078;34.818;2023-01-05T13:12:56;0.70;;;0.70;;
23617;SDS011;18207;32.078;34.818;2023-01-05T13:15:33;0.47;;;0.47;;
23617;SDS011;18207;32.078;34.818;2023-01-05T13:18:12;0.57;;;0.57;;
23617;SDS011;18207;32.078;34.818;2023-01-05T13:20:47;0.47;;;0.47;;
23617;SDS011;18207;32.078;34.818;2023-01-05T13:23:23;0.50;;;0.50;;
23617;SDS011;18207;32.078;34.818;2023-01-05T13:26:03;1.05;;;0.80;;
23617;SDS011;18207;32.078;34.818;2023-01-05T13:28:38;1.45;;;0.80;;
23617;SDS011;18207;32.078;34.818;2023-01-05T13:31:21;0.60;;;0.60;;
23617;SDS011;18207;32.078;34.818;2023-01-05T13:34:40;0.40;;;0.40;;
23617;SDS011;18207;32.078;34.818;2023-01-05T13:41:01;0.50;;;0.50;;
23617;SDS011;18207;32.078;34.818;2023-01-05T13:44:25;0.60;;;0.60;;
23617;SDS011;18207;32.078;34.818;2023-01-05T13:47:52;0.50;;;0.50;;
23617;SDS011;18207;32.078;34.818;2023-01-05T13:51:22;0.50;;;0.50;;
23617;SDS011;18207;32.078;34.818;2023-01-05T13:54:25;0.80;;;0.80;;
23617;SDS011;18207;32.078;34.818;2023-01-05T13:57:28;0.80;;;0.80;;
23617;SDS011;18207;32.078;34.818;2023-01-05T14:00:07;0.55;;;0.55;;
23617;SDS011;18207;32.078;34.818;2023-01-05T14:02:57;0.30;;;0.30;;
23617;SDS011;18207;32.078;34.818;2023-01-05T14:05:36;0.68;;;0.45;;
23617;SDS011;18207;32.078;34.818;2023-01-05T14:08:19;0.30;;;0.30;;
23617;SDS011;18207;32.078;34.818;2023-01-05T14:11:08;0.52;;;0.52;;
23617;SDS011;18207;32.078;34.818;2023-01-05T14:13:45;0.60;;;0.60;;
23617;SDS011;18207;32.078;34.818;2023-01-05T14:19:50;1.08;;;0.70;;
23617;SDS011;18207;32.078;34.818;2023-01-05T14:22:22;0.52;;;0.52;;
23617;SDS011;18207;32.078;34.818;2023-01-05T14:28:22;0.65;;;0.65;;
23617;SDS011;18207;32.078;34.818;2023-01-05T14:34:16;0.50;;;0.50;;
23617;SDS011;18207;32.078;34.818;2023-01-05T14:37:02;1.05;;;0.50;;
23617;SDS011;18207;32.078;34.818;2023-01-05T14:39:38;0.80;;;0.80;;
23617;SDS011;18207;32.078;34.818;2023-01-05T14:42:19;0.95;;;0.70;;
23617;SDS011;18207;32.078;34.818;2023-01-05T14:45:05;0.63;;;0.63;;
23617;SDS011;18207;32.078;34.818;2023-01-05T14:47:52;0.60;;;0.60;;
23617;SDS011;18207;32.078;34.818;2023-01-05T14:50:29;0.70;;;0.70;;
23617;SDS011;18207;32.078;34.818;2023-01-05T14:53:06;0.60;;;0.60;;
23617;SDS011;18207;32.078;34.818;2023-01-05T14:58:54;0.70;;;0.70;;
23617;SDS011;18207;32.078;34.818;2023-01-05T15:04:45;0.70;;;0.70;;
23617;SDS011;18207;32.078;34.818;2023-01-05T15:07:27;0.60;;;0.60;;
23617;SDS011;18207;32.078;34.818;2023-01-05T15:10:21;0.65;;;0.65;;
23617;SDS011;18207;32.078;34.818;2023-01-05T15:13:28;0.40;;;0.40;;
23617;SDS011;18207;32.078;34.818;2023-01-05T15:20:21;0.70;;;0.60;;
23617;SDS011;18207;32.078;34.818;2023-01-05T15:23:34;0.88;;;0.88;;
23617;SDS011;18207;32.078;34.818;2023-01-05T15:26:37;1.40;;;1.30;;
23617;SDS011;18207;32.078;34.818;2023-01-05T15:29:31;1.17;;;1.17;;
23617;SDS011;18207;32.078;34.818;2023-01-05T15:32:32;1.10;;;1.10;;
23617;SDS011;18207;32.078;34.818;2023-01-05T15:35:13;1.40;;;1.30;;
23617;SDS011;18207;32.078;34.818;2023-01-05T15:37:48;1.30;;;1.20;;
23617;SDS011;18207;32.078;34.818;2023-01-05T15:40:26;1.08;;;1.08;;
23617;SDS011;18207;32.078;34.818;2023-01-05T15:43:01;1.20;;;1.10;;
23617;SDS011;18207;32.078;34.818;2023-01-05T15:45:34;1.13;;;1.10;;
23617;SDS011;18207;32.078;34.818;2023-01-05T15:48:10;0.90;;;0.90;;
23617;SDS011;18207;32.078;34.818;2023-01-05T15:50:47;1.58;;;0.98;;
23617;SDS011;18207;32.078;34.818;2023-01-05T15:53:27;1.40;;;1.30;;
23617;SDS011;18207;32.078;34.818;2023-01-05T15:56:01;1.15;;;1.00;;
23617;SDS011;18207;32.078;34.818;2023-01-05T15:58:40;1.23;;;1.13;;
23617;SDS011;18207;32.078;34.818;2023-01-05T16:01:14;1.70;;;1.60;;
23617;SDS011;18207;32.078;34.818;2023-01-05T16:03:47;1.63;;;1.45;;
23617;SDS011;18207;32.078;34.818;2023-01-05T16:06:18;1.58;;;1.48;;
23617;SDS011;18207;32.078;34.818;2023-01-05T16:08:54;1.60;;;1.50;;
23617;SDS011;18207;32.078;34.818;2023-01-05T16:11:37;1.08;;;1.08;;
23617;SDS011;18207;32.078;34.818;2023-01-05T16:14:14;0.95;;;0.95;;
23617;SDS011;18207;32.078;34.818;2023-01-05T16:16:56;0.98;;;0.98;;
23617;SDS011;18207;32.078;34.818;2023-01-05T16:19:32;1.08;;;1.08;;
23617;SDS011;18207;32.078;34.818;2023-01-05T16:22:11;1.10;;;1.10;;
23617;SDS011;18207;32.078;34.818;2023-01-05T16:24:50;1.27;;;1.17;;
23617;SDS011;18207;32.078;34.818;2023-01-05T16:27:31;1.20;;;1.20;;